Scroll down
FLIGHT INFORMATION
Alaska Airlines

ASA717

At Arrival Gate

PAJN
 KJAC
DATE: 2020-07-17
GATE: 2
GATE DEPARTURE: 11:44
TAKEOFF: 11:55
DATE: 2020-07-17
GATE:  -
LANDING: 14:57
GATE ARRIVAL: 15:01
FLIGHT DATA
Crew: 
Speed: 
473 kts
Altitude: 
37,036 ft
Stage Length: 
1,250.5 nm
Block Time: 
3.2 hrs
Flight Time: 
3 hrs
Fuel Used: 
16,393 lb
Cleared Route: PAJN LVD YZT YVR MWH LKT TOCUD DNW KJAC
TRACK DATA
50,000 ft 1,000 kts
AIRCRAFT INFO AND CUMULATIVE STATS
Aircraft Type: 
B737BW
Registration: 
SELCAL: 
FLAP
MSN/LN: 
29753 / 385
Operator: 
Total Flights: 
13
Total Block Time: 
21.7 hrs
Total Flight Time: 
18.8 hrs
Total Fuel Used: 
118,696 lb
DATALINK LOG | Newest first | Current as of: 2021-11-30 22:10:50
LABEL SEQUENCE CONTENT Dn/Up
5Z075817 JUL 20 15:03:16z / FLT DECK GOOD / ACF POS GOOD / GRND SERVICES NO CHOCKS / MAINT GOOD▼ Dn
QD055615:01 7.4▼ Dn
QC015314:57▼ Dn
2U3839KJAC 171356Z 01006KT 10SM CLR 11/03 A3024 RMK AO2 SLP181 T01060033▲ Up
2S4133KJAC▼ Dn
UM0 UM192534UNABLE. MAINTAIN ASSIGNED ALTITUDE▲ Up
DM62524REQUEST FL 390 DUE TO A/C PERF▼ Dn
QB575811:55▼ Dn
QA474911:44 23.8▼ Dn
A32638CLEARED TO KJAC VIA JNU5 LVD YZT YVR MWH LKT TOCUD DNW. SQUAWK .▲ Up
2U2303PAJN 171053Z 00000KT 10SM BKN032 OVC041 12/10 A3004 RMK AO2 SLP171 T01220100▲ Up
2S2636PAJN▼ Dn
B32629PAJN KJAC ASA717 N611AS ▼ Dn
Q00812[LINK ACK]▲ Up
Q00812[LINK TEST]▼ Dn


AIRCRAFT HISTORY
FLIGHT DATE FLIGHT NO. ORIGIN DESTINATION CLEARED ROUTE BLOCK TIME FLIGHT TIME FUEL USED PILOT
2020-12-28ASA1228PAJN PANC PAJN CGLNB BARLO LYNNS CUSHI ASORT BERGS FAKES YAK JOH DENSN PTERS SKENS MMMAT BBELL DDOUG LMPEE CARDD RW151.6 hrs1.5 hrs7,817 lbDan Downs
2020-08-16ASA64PAYA PAJN 0.7 hrs0.6 hrs4,508 lbKurt Kalbfleisch
2020-08-16ASA64PANC PAYA PANC HEJNO PAYA1.2 hrs0.9 hrs6,579 lbKurt Kalbfleisch
2020-08-15ASA61PACV PANC 0.8 hrs0.6 hrs4,943 lbKurt Kalbfleisch
2020-08-15ASA61PAYA PACV PAYA OCC ATAGA FORAT PACV0.9 hrs0.6 hrs5,039 lbKurt Kalbfleisch
2020-08-14ASA61PAJN PAYA 0.8 hrs0.7 hrs5,313 lbKurt Kalbfleisch
2020-08-14ASA61KSEA PAJN KSEA PANGL KEVNA LVD STVNS PAJN2.6 hrs2.3 hrs14,901 lbKurt Kalbfleisch
2020-08-12ASA1253KSFO KSEA KSFO TYDYE TRUKN DEDHD RBL LMT KNGDM WRUSL BTG PTERA KRIEG HAWKZ LIINE PIKEZ COFAY BREVE NETTZ KWEST VASHN KARFO RW16L1.7 hrs1.5 hrs8,733 lbRobin Oeverby
2020-08-04KPDX KSFO KPDX PEGTY KELYY DUDRE MINNE FAMUK FRFLY FINER FOWND MLBEC JONNE BGGLO LOZIT STLER WESLA MVRKK CCR RW19L2 hrs1.6 hrs10,180 lbKurt Kalbfleisch
2020-08-04KSAN KPDX KSAN WNFLD KERNL GYWNN PADRZ HFMNN CHKNN RIDDL LANDO EHF SHIMR GALLO RENAA MOXEE PORTL TMBRS VANTZ FLOWR WIDMR ROAGE ICEAX HANAH RW28L2.6 hrs2.3 hrs14,676 lbKurt Kalbfleisch
2020-08-02KMRY KSAN KMRY SHOEY BSR MQO RZS LAX MRVEL SPYDE GAMBT LEJEN COMIX FLSHH LNTRN XMANS KLOMN NADDO KLOMN RW271.7 hrs1.4 hrs9,800 lbKurt Kalbfleisch
2020-07-20ASA720KJAC KMRY KJAC NALSI IDA ROGET BAM PUSHH SNS KMRY1.9 hrs1.8 hrs9,815 lbMarc O'Eland
2020-07-17ASA717PAJN KJAC PAJN LVD YZT YVR MWH LKT TOCUD DNW KJAC3.2 hrs3 hrs16,393 lbMarc O'Eland